createdAt,value
2018-04-14T00:01:20.915Z,10.83
2018-04-14T00:03:49.280Z,10.84
2018-04-14T00:06:18.444Z,10.80
2018-04-14T00:08:47.365Z,10.68
2018-04-14T00:11:16.510Z,10.56
2018-04-14T00:13:45.227Z,10.62
2018-04-14T00:16:14.764Z,10.62
2018-04-14T00:18:44.275Z,10.64
2018-04-14T00:21:13.475Z,10.56
2018-04-14T00:23:41.895Z,10.60
2018-04-14T00:26:10.301Z,10.47
2018-04-14T00:28:39.645Z,10.52
2018-04-14T00:31:08.090Z,10.60
2018-04-14T00:33:36.480Z,10.48
2018-04-14T00:36:04.864Z,10.51
2018-04-14T00:38:33.247Z,10.61
2018-04-14T00:41:02.576Z,10.45
2018-04-14T00:43:30.994Z,10.39
2018-04-14T00:45:59.958Z,10.54
2018-04-14T00:48:28.692Z,10.59
2018-04-14T00:50:57.026Z,10.58
2018-04-14T00:53:37.066Z,10.65
2018-04-14T00:56:05.421Z,10.47
2018-04-14T00:58:33.831Z,10.59
2018-04-14T01:01:03.718Z,10.44
2018-04-14T01:03:32.366Z,10.50
2018-04-14T01:06:00.747Z,10.42
2018-04-14T01:08:29.128Z,10.46
2018-04-14T01:10:58.159Z,10.28
2018-04-14T01:13:27.790Z,10.36
2018-04-14T01:15:56.447Z,10.34
2018-04-14T01:18:25.009Z,10.28
2018-04-14T01:20:53.365Z,10.23
2018-04-14T01:23:23.250Z,10.23
2018-04-14T01:25:51.850Z,10.33
2018-04-14T01:28:21.074Z,10.26
2018-04-14T01:30:49.612Z,10.20
2018-04-14T01:33:18.053Z,10.31
2018-04-14T01:35:46.996Z,10.32
2018-04-14T01:38:15.379Z,10.16
2018-04-14T01:40:43.775Z,9.98
2018-04-14T01:43:12.140Z,10.17
2018-04-14T01:45:40.493Z,9.99
2018-04-14T01:48:08.903Z,10.03
2018-04-14T01:50:38.512Z,10.02
2018-04-14T01:53:06.928Z,9.90
2018-04-14T01:55:35.293Z,9.91
2018-04-14T01:58:04.345Z,9.90
2018-04-14T02:00:32.726Z,9.88
2018-04-14T02:03:01.095Z,9.88
2018-04-14T02:05:29.491Z,9.90
2018-04-14T02:07:57.874Z,10.04
2018-04-14T02:10:26.205Z,9.96
2018-04-14T02:12:54.570Z,9.95
2018-04-14T02:15:24.169Z,10.02
2018-04-14T02:17:52.582Z,9.99
2018-04-14T02:20:21.194Z,9.95
2018-04-14T02:22:49.640Z,9.90
2018-04-14T02:25:17.979Z,9.84
2018-04-14T02:27:46.523Z,9.91
2018-04-14T02:30:14.853Z,9.94
2018-04-14T02:32:43.200Z,10.10
2018-04-14T02:35:11.594Z,10.01
2018-04-14T02:37:39.948Z,10.04
2018-04-14T02:40:08.559Z,10.15
2018-04-14T02:42:37.812Z,10.27
2018-04-14T02:45:06.189Z,10.12
2018-04-14T02:47:34.579Z,10.10
2018-04-14T02:50:02.933Z,10.06
2018-04-14T02:52:33.418Z,10.06
2018-04-14T02:55:03.209Z,9.95
2018-04-14T02:57:31.892Z,10.03
2018-04-14T03:00:00.274Z,10.05
2018-04-14T03:02:28.626Z,10.03
2018-04-14T03:04:56.997Z,10.08
2018-04-14T03:07:25.976Z,10.07
2018-04-14T03:09:55.284Z,10.08
2018-04-14T03:12:23.614Z,9.98
2018-04-14T03:14:52.504Z,9.92
2018-04-14T03:17:21.204Z,10.09
2018-04-14T03:19:50.299Z,10.11
2018-04-14T03:22:19.008Z,10.10
2018-04-14T03:24:48.188Z,10.10
2018-04-14T03:27:16.536Z,10.12
2018-04-14T03:29:44.933Z,9.85
2018-04-14T03:32:13.432Z,10.09
2018-04-14T03:34:42.653Z,10.07
2018-04-14T03:37:11.096Z,10.10
2018-04-14T03:39:40.087Z,10.27
2018-04-14T03:42:09.005Z,9.92
2018-04-14T03:44:38.837Z,10.04
2018-04-14T03:47:07.308Z,10.14
2018-04-14T03:49:35.708Z,10.13
2018-04-14T03:52:04.041Z,9.97
2018-04-14T03:54:32.423Z,10.09
2018-04-14T03:57:01.862Z,10.07
2018-04-14T03:59:31.198Z,9.99
2018-04-14T04:01:59.545Z,9.87
2018-04-14T04:04:29.462Z,10.06
2018-04-14T04:06:58.578Z,9.93
2018-04-14T04:09:26.944Z,9.92
2018-04-14T04:11:55.324Z,9.87
2018-04-14T04:14:23.716Z,9.85
2018-04-14T04:16:52.936Z,9.78
2018-04-14T04:19:33.687Z,9.75
2018-04-14T04:22:14.261Z,9.58
2018-04-14T04:24:54.299Z,9.69
2018-04-14T04:27:22.345Z,9.61
2018-04-14T04:29:51.081Z,9.60
2018-04-14T04:32:19.407Z,9.69
2018-04-14T04:34:47.492Z,9.73
2018-04-14T04:37:15.638Z,9.64
2018-04-14T04:39:45.296Z,9.47
2018-04-14T04:42:14.288Z,9.56
2018-04-14T04:44:44.199Z,9.46
2018-04-14T04:47:13.169Z,9.53
2018-04-14T04:49:41.986Z,9.47
2018-04-14T04:52:10.216Z,9.44
2018-04-14T04:54:38.527Z,9.47
2018-04-14T04:57:07.513Z,9.51
2018-04-14T04:59:35.592Z,9.41
2018-04-14T05:02:05.228Z,9.51
2018-04-14T05:04:34.243Z,9.56
2018-04-14T05:07:03.191Z,9.54
2018-04-14T05:09:31.284Z,9.60
2018-04-14T05:11:59.353Z,9.67
2018-04-14T05:14:27.841Z,9.63
2018-04-14T05:16:56.313Z,9.68
2018-04-14T05:19:26.096Z,9.49
2018-04-14T05:21:54.877Z,9.53
2018-04-14T05:24:22.987Z,9.55
2018-04-14T05:26:51.273Z,9.65
2018-04-14T05:29:19.341Z,9.68
2018-04-14T05:31:48.206Z,9.59
2018-04-14T05:34:16.601Z,9.69
2018-04-14T05:36:44.675Z,9.69
2018-04-14T05:39:12.875Z,9.46
2018-04-14T05:41:40.930Z,9.59
2018-04-14T05:44:09.520Z,9.55
2018-04-14T05:46:38.792Z,9.58
2018-04-14T05:49:07.147Z,9.56
2018-04-14T05:51:35.775Z,9.40
2018-04-14T05:54:04.577Z,9.47
2018-04-14T05:56:32.642Z,9.56
2018-04-14T05:59:01.866Z,9.51
2018-04-14T06:01:29.961Z,9.61
2018-04-14T06:03:58.869Z,9.68
2018-04-14T06:06:26.989Z,9.54
2018-04-14T06:08:55.085Z,9.43
2018-04-14T06:11:23.198Z,9.66
2018-04-14T06:13:52.119Z,9.69
2018-04-14T06:16:20.397Z,9.66
2018-04-14T06:18:48.468Z,9.67
2018-04-14T06:21:16.678Z,9.56
2018-04-14T06:23:44.752Z,9.57
2018-04-14T06:26:13.145Z,9.62
2018-04-14T06:28:41.458Z,9.73
2018-04-14T06:31:10.724Z,9.63
2018-04-14T06:33:38.811Z,9.53
2018-04-14T06:36:06.884Z,9.59
2018-04-14T06:38:34.955Z,9.63
2018-04-14T06:41:03.603Z,9.51
2018-04-14T06:43:32.760Z,9.78
2018-04-14T06:46:01.474Z,9.69
2018-04-14T06:48:29.543Z,9.89
2018-04-14T06:50:57.619Z,9.89
2018-04-14T06:53:25.805Z,9.92
2018-04-14T06:55:53.895Z,9.65
2018-04-14T06:58:23.452Z,9.52
2018-04-14T07:00:51.577Z,9.68
2018-04-14T07:03:19.638Z,9.86
2018-04-14T07:05:47.804Z,9.95
2018-04-14T07:08:16.284Z,9.77
2018-04-14T07:10:44.422Z,9.65
2018-04-14T07:13:12.961Z,9.85
2018-04-14T07:15:42.278Z,9.80
2018-04-14T07:18:10.397Z,9.86
2018-04-14T07:20:39.449Z,9.55
2018-04-14T07:23:08.281Z,9.53
2018-04-14T07:25:37.167Z,9.75
2018-04-14T07:28:05.230Z,9.82
2018-04-14T07:30:34.111Z,9.87
2018-04-14T07:33:02.315Z,10.10
2018-04-14T07:35:30.551Z,10.15
2018-04-14T07:37:58.619Z,10.00
2018-04-14T07:40:27.244Z,10.05
2018-04-14T07:42:55.367Z,10.26
2018-04-14T07:45:23.540Z,10.26
2018-04-14T07:47:52.462Z,10.51
2018-04-14T07:50:20.600Z,10.68
2018-04-14T07:52:48.709Z,10.57
2018-04-14T07:55:16.801Z,10.66
2018-04-14T07:57:45.628Z,10.72
2018-04-14T08:00:13.793Z,10.67
2018-04-14T08:02:41.888Z,10.66
2018-04-14T08:05:10.046Z,10.57
2018-04-14T08:07:38.467Z,10.62
2018-04-14T08:10:06.552Z,10.52
2018-04-14T08:12:34.601Z,10.71
2018-04-14T08:15:02.732Z,10.63
2018-04-14T08:17:30.798Z,10.90
2018-04-14T08:19:58.926Z,10.79
2018-04-14T08:22:27.250Z,10.72
2018-04-14T08:24:55.321Z,10.62
2018-04-14T08:27:23.398Z,10.83
2018-04-14T08:29:52.085Z,10.89
2018-04-14T08:32:20.140Z,10.71
2018-04-14T08:34:48.220Z,10.98
2018-04-14T08:37:16.313Z,11.03
2018-04-14T08:39:44.415Z,11.10
2018-04-14T08:42:14.247Z,11.32
2018-04-14T08:44:42.569Z,11.40
2018-04-14T08:47:10.871Z,11.45
2018-04-14T08:49:39.718Z,11.70
2018-04-14T08:52:07.956Z,11.94
2018-04-14T08:54:36.243Z,12.02
2018-04-14T08:57:05.285Z,12.40
2018-04-14T08:59:34.184Z,12.54
2018-04-14T09:02:02.298Z,12.57
2018-04-14T09:04:30.703Z,12.90
2018-04-14T09:06:59.179Z,13.01
2018-04-14T09:09:27.254Z,13.11
2018-04-14T09:11:55.453Z,13.37
2018-04-14T09:14:24.812Z,13.41
2018-04-14T09:16:53.880Z,13.26
2018-04-14T09:19:23.287Z,13.09
2018-04-14T09:21:51.895Z,13.24
2018-04-14T09:24:20.255Z,13.18
2018-04-14T09:26:48.594Z,13.14
2018-04-14T09:29:17.422Z,13.38
2018-04-14T09:31:45.796Z,13.13
2018-04-14T09:34:15.170Z,13.33
2018-04-14T09:36:44.099Z,13.39
2018-04-14T09:39:13.285Z,13.62
2018-04-14T09:41:41.803Z,13.76
2018-04-14T09:44:11.271Z,14.06
2018-04-14T09:46:40.907Z,14.26
2018-04-14T09:49:09.254Z,14.42
2018-04-14T09:51:39.072Z,14.31
2018-04-14T09:54:07.656Z,14.70
2018-04-14T09:56:36.009Z,14.83
2018-04-14T09:59:05.260Z,14.82
2018-04-14T10:01:34.187Z,15.03
2018-04-14T10:04:03.450Z,15.04
2018-04-14T10:06:32.129Z,15.47
2018-04-14T10:09:01.184Z,15.28
2018-04-14T10:11:31.359Z,15.75
2018-04-14T10:14:00.067Z,15.68
2018-04-14T10:16:28.469Z,15.99
2018-04-14T10:18:56.889Z,15.79
2018-04-14T10:21:25.262Z,15.89
2018-04-14T10:23:53.668Z,16.42
2018-04-14T10:26:22.036Z,16.21
2018-04-14T10:28:50.383Z,16.60
2018-04-14T10:31:19.469Z,16.43
2018-04-14T10:33:48.537Z,16.80
2018-04-14T10:36:16.950Z,16.70
2018-04-14T10:38:46.157Z,17.14
2018-04-14T10:41:14.526Z,17.21
2018-04-14T10:43:44.026Z,17.60
2018-04-14T10:46:12.442Z,17.54
2018-04-14T10:48:40.806Z,17.61
2018-04-14T10:51:09.660Z,17.42
2018-04-14T10:53:38.734Z,17.81
2018-04-14T10:56:08.587Z,18.00
2018-04-14T10:58:37.562Z,17.97
2018-04-14T11:01:07.125Z,18.12
2018-04-14T11:03:35.723Z,18.22
2018-04-14T11:06:04.174Z,18.35
2018-04-14T11:08:33.962Z,18.49
2018-04-14T11:11:03.167Z,18.49
2018-04-14T11:13:31.507Z,18.63
2018-04-14T11:16:00.516Z,18.38
2018-04-14T11:18:30.041Z,19.07
2018-04-14T11:20:59.129Z,18.07
2018-04-14T11:23:27.487Z,18.71
2018-04-14T11:25:56.797Z,18.72
2018-04-14T11:28:25.768Z,18.96
2018-04-14T11:30:54.119Z,19.01
2018-04-14T11:33:22.428Z,19.34
2018-04-14T11:35:50.779Z,19.21
2018-04-14T11:38:19.157Z,19.56
2018-04-14T11:40:47.545Z,19.76
2018-04-14T11:43:17.299Z,19.74
2018-04-14T11:45:45.692Z,19.88
2018-04-14T11:48:14.079Z,19.59
2018-04-14T11:50:43.467Z,19.76
2018-04-14T11:53:11.809Z,20.10
2018-04-14T11:55:40.288Z,19.88
2018-04-14T11:58:08.609Z,19.56
2018-04-14T12:00:36.998Z,19.49
2018-04-14T12:03:05.333Z,19.51
2018-04-14T12:05:33.821Z,19.99
2018-04-14T12:08:02.156Z,19.74
2018-04-14T12:10:34.405Z,19.48
2018-04-14T12:13:02.775Z,19.86
2018-04-14T12:15:31.145Z,20.06
2018-04-14T12:17:59.708Z,20.40
2018-04-14T12:20:28.071Z,20.16
2018-04-14T12:22:56.399Z,20.30
2018-04-14T12:25:25.026Z,20.26
2018-04-14T12:27:54.211Z,20.23
2018-04-14T12:30:22.569Z,20.23
2018-04-14T12:32:50.934Z,20.34
2018-04-14T12:35:19.302Z,20.46
2018-04-14T12:37:48.807Z,20.76
2018-04-14T12:40:17.177Z,20.80
2018-04-14T12:42:45.946Z,21.07
2018-04-14T12:45:14.362Z,19.83
2018-04-14T12:47:43.565Z,20.27
2018-04-14T12:50:13.862Z,20.52
2018-04-14T12:52:42.190Z,20.36
2018-04-14T12:55:10.576Z,19.26
2018-04-14T12:57:39.621Z,19.95
2018-04-14T13:00:08.308Z,19.78
2018-04-14T13:02:36.658Z,20.65
2018-04-14T13:05:05.258Z,21.15
2018-04-14T13:07:34.445Z,21.21
2018-04-14T13:10:03.758Z,21.46
2018-04-14T13:12:33.015Z,21.26
2018-04-14T13:15:02.756Z,20.17
2018-04-14T13:17:32.193Z,20.59
2018-04-14T13:20:01.240Z,20.78
2018-04-14T13:22:30.353Z,20.66
2018-04-14T13:24:59.594Z,20.31
2018-04-14T13:27:28.838Z,20.08
2018-04-14T13:29:58.145Z,20.07
2018-04-14T13:32:27.215Z,20.11
2018-04-14T13:34:55.589Z,20.11
2018-04-14T13:37:24.703Z,19.78
2018-04-14T13:39:54.014Z,20.02
2018-04-14T13:42:22.974Z,20.24
2018-04-14T13:44:51.341Z,20.03
2018-04-14T13:47:20.637Z,19.97
2018-04-14T13:49:48.969Z,19.41
2018-04-14T13:52:17.317Z,19.55
2018-04-14T13:54:45.973Z,19.51
2018-04-14T13:57:15.233Z,19.63
2018-04-14T13:59:43.602Z,19.60
2018-04-14T14:02:13.255Z,19.51
2018-04-14T14:04:41.581Z,19.77
2018-04-14T14:07:10.777Z,19.70
2018-04-14T14:09:39.127Z,19.52
2018-04-14T14:12:08.493Z,20.11
2018-04-14T14:14:37.186Z,20.23
2018-04-14T14:17:05.541Z,20.77
2018-04-14T14:19:34.673Z,21.26
2018-04-14T14:22:03.016Z,21.37
2018-04-14T14:24:31.388Z,21.23
2018-04-14T14:26:59.719Z,21.09
2018-04-14T14:29:28.795Z,20.92
2018-04-14T14:31:58.051Z,21.15
2018-04-14T14:34:27.220Z,20.93
2018-04-14T14:36:55.562Z,20.77
2018-04-14T14:39:24.614Z,20.57
2018-04-14T14:41:52.992Z,20.28
2018-04-14T14:44:24.160Z,20.32
2018-04-14T14:46:53.790Z,20.42
2018-04-14T14:49:22.152Z,21.16
2018-04-14T14:51:50.500Z,21.04
2018-04-14T14:54:18.852Z,20.54
2018-04-14T14:56:48.894Z,20.77
2018-04-14T14:59:17.791Z,20.74
2018-04-14T15:01:47.342Z,20.51
2018-04-14T15:04:15.734Z,21.21
2018-04-14T15:06:44.119Z,21.51
2018-04-14T15:09:12.465Z,21.55
2018-04-14T15:11:41.017Z,21.40
2018-04-14T15:14:09.376Z,21.52
2018-04-14T15:16:37.731Z,21.39
2018-04-14T15:19:08.262Z,21.50
2018-04-14T15:21:36.593Z,21.44
2018-04-14T15:24:05.756Z,21.37
2018-04-14T15:26:34.086Z,21.17
2018-04-14T15:29:02.549Z,20.93
2018-04-14T15:31:30.924Z,20.93
2018-04-14T15:33:59.494Z,20.50
2018-04-14T15:36:28.565Z,20.43
2018-04-14T15:38:57.306Z,20.37
2018-04-14T15:41:25.663Z,20.43
2018-04-14T15:43:54.029Z,20.24
2018-04-14T15:46:23.900Z,20.30
2018-04-14T15:48:52.224Z,20.26
2018-04-14T15:51:20.628Z,20.16
2018-04-14T15:53:49.681Z,20.15
2018-04-14T15:56:18.126Z,20.14
2018-04-14T15:58:46.455Z,20.11
2018-04-14T16:01:15.592Z,19.97
2018-04-14T16:03:45.418Z,19.91
2018-04-14T16:06:14.641Z,19.79
2018-04-14T16:08:43.907Z,19.74
2018-04-14T16:11:12.937Z,19.58
2018-04-14T16:13:41.249Z,19.51
2018-04-14T16:16:09.929Z,19.68
2018-04-14T16:18:38.919Z,19.67
2018-04-14T16:21:07.262Z,19.64
2018-04-14T16:23:35.637Z,19.64
2018-04-14T16:26:04.015Z,19.60
2018-04-14T16:28:32.702Z,19.63
2018-04-14T16:31:01.744Z,19.64
2018-04-14T16:33:31.601Z,19.62
2018-04-14T16:36:00.811Z,19.58
2018-04-14T16:38:29.907Z,19.45
2018-04-14T16:40:59.496Z,19.51
2018-04-14T16:43:28.044Z,19.26
2018-04-14T16:45:57.620Z,19.36
2018-04-14T16:48:26.918Z,19.30
2018-04-14T16:50:56.247Z,19.11
2018-04-14T16:53:25.521Z,19.08
2018-04-14T16:55:53.936Z,19.20
2018-04-14T16:58:22.861Z,19.15
2018-04-14T17:00:52.953Z,19.18
2018-04-14T17:03:21.313Z,18.98
2018-04-14T17:05:49.651Z,18.97
2018-04-14T17:08:18.933Z,19.09
2018-04-14T17:10:47.283Z,18.95
2018-04-14T17:13:15.638Z,19.00
2018-04-14T17:15:44.861Z,19.04
2018-04-14T17:18:14.021Z,18.93
2018-04-14T17:20:43.642Z,19.03
2018-04-14T17:23:12.053Z,18.98
2018-04-14T17:25:41.346Z,18.98
2018-04-14T17:28:10.225Z,18.91
2018-04-14T17:30:39.217Z,18.79
2018-04-14T17:33:08.152Z,18.83
2018-04-14T17:35:36.558Z,18.76
2018-04-14T17:38:05.793Z,18.70
2018-04-14T17:40:34.126Z,18.60
2018-04-14T17:43:03.093Z,18.54
2018-04-14T17:45:31.444Z,18.48
2018-04-14T17:48:00.202Z,18.39
2018-04-14T17:50:29.488Z,18.36
2018-04-14T17:52:57.854Z,18.37
2018-04-14T17:55:26.661Z,18.33
2018-04-14T17:57:56.248Z,18.34
2018-04-14T18:00:25.054Z,18.25
2018-04-14T18:02:53.495Z,18.28
2018-04-14T18:05:22.392Z,18.27
2018-04-14T18:07:51.645Z,18.25
2018-04-14T18:10:19.977Z,18.12
2018-04-14T18:12:50.947Z,18.09
2018-04-14T18:15:21.128Z,18.16
2018-04-14T18:17:50.937Z,17.91
2018-04-14T18:20:19.693Z,17.82
2018-04-14T18:22:48.831Z,17.74
2018-04-14T18:25:17.167Z,17.78
2018-04-14T18:27:45.803Z,17.73
2018-04-14T18:30:15.066Z,17.74
2018-04-14T18:32:43.984Z,17.66
2018-04-14T18:35:13.545Z,17.56
2018-04-14T18:37:41.895Z,17.47
2018-04-14T18:40:10.259Z,17.39
2018-04-14T18:42:39.644Z,17.28
2018-04-14T18:45:07.967Z,17.22
2018-04-14T18:47:38.272Z,17.29
2018-04-14T18:50:07.360Z,17.25
2018-04-14T18:52:37.117Z,17.29
2018-04-14T18:55:05.852Z,17.29
2018-04-14T18:57:34.261Z,17.17
2018-04-14T19:00:04.728Z,17.08
2018-04-14T19:02:33.939Z,17.00
2018-04-14T19:05:02.654Z,17.05
2018-04-14T19:07:34.498Z,16.99
2018-04-14T19:10:03.642Z,16.85
2018-04-14T19:12:33.531Z,16.84
2018-04-14T19:15:01.862Z,16.74
2018-04-14T19:17:30.834Z,16.58
2018-04-14T19:19:59.176Z,16.61
2018-04-14T19:22:27.531Z,16.56
2018-04-14T19:24:56.766Z,16.58
2018-04-14T19:27:25.153Z,16.72
2018-04-14T19:29:56.645Z,16.62
2018-04-14T19:32:25.111Z,16.48
2018-04-14T19:34:53.487Z,16.38
2018-04-14T19:37:21.914Z,16.20
2018-04-14T19:39:50.825Z,16.14
2018-04-14T19:42:20.109Z,16.14
2018-04-14T19:44:48.673Z,16.11
2018-04-14T19:47:18.126Z,16.07
2018-04-14T19:49:46.488Z,16.01
2018-04-14T19:52:16.217Z,15.99
2018-04-14T19:54:45.815Z,15.86
2018-04-14T19:57:15.483Z,15.86
2018-04-14T19:59:43.875Z,15.80
2018-04-14T20:02:12.302Z,15.72
2018-04-14T20:04:40.647Z,15.77
2018-04-14T20:07:11.780Z,15.69
2018-04-14T20:09:40.390Z,15.68
2018-04-14T20:12:09.581Z,15.62
2018-04-14T20:14:39.563Z,15.66
2018-04-14T20:17:09.586Z,15.74
2018-04-14T20:19:37.988Z,15.75
2018-04-14T20:22:06.547Z,15.60
2018-04-14T20:24:36.904Z,15.58
2018-04-14T20:27:05.651Z,15.49
2018-04-14T20:29:34.988Z,15.35
2018-04-14T20:32:03.625Z,15.11
2018-04-14T20:34:31.952Z,15.16
2018-04-14T20:37:01.050Z,15.14
2018-04-14T20:39:29.845Z,14.92
2018-04-14T20:41:59.703Z,14.78
2018-04-14T20:44:29.844Z,14.67
2018-04-14T20:46:58.235Z,14.79
2018-04-14T20:49:26.645Z,14.85
2018-04-14T20:51:55.415Z,14.92
2018-04-14T20:54:26.798Z,14.85
2018-04-14T20:56:56.037Z,15.00
2018-04-14T20:59:24.395Z,14.91
2018-04-14T21:01:52.950Z,14.94
2018-04-14T21:04:23.060Z,14.77
2018-04-14T21:06:52.269Z,14.71
2018-04-14T21:09:20.890Z,14.64
2018-04-14T21:11:50.168Z,14.36
2018-04-14T21:14:19.288Z,14.33
2018-04-14T21:16:49.801Z,14.25
2018-04-14T21:19:18.472Z,14.26
2018-04-14T21:21:46.799Z,14.27
2018-04-14T21:24:16.349Z,14.38
2018-04-14T21:26:46.855Z,14.32
2018-04-14T21:29:16.070Z,14.24
2018-04-14T21:31:45.242Z,14.27
2018-04-14T21:34:13.589Z,14.25
2018-04-14T21:36:42.222Z,14.25
2018-04-14T21:39:11.601Z,14.13
2018-04-14T21:41:40.025Z,14.13
2018-04-14T21:44:09.233Z,14.08
2018-04-14T21:46:39.334Z,13.95
2018-04-14T21:49:08.759Z,13.85
2018-04-14T21:51:38.049Z,13.83
2018-04-14T21:54:06.790Z,13.74
2018-04-14T21:56:35.973Z,13.78
2018-04-14T21:59:04.325Z,13.72
2018-04-14T22:01:33.572Z,13.78
2018-04-14T22:04:02.843Z,13.82
2018-04-14T22:06:31.461Z,13.81
2018-04-14T22:08:59.815Z,13.78
2018-04-14T22:11:28.927Z,13.69
2018-04-14T22:13:57.507Z,13.73
2018-04-14T22:16:26.750Z,13.70
2018-04-14T22:18:55.181Z,13.75
2018-04-14T22:21:23.835Z,13.73
2018-04-14T22:23:52.550Z,13.69
2018-04-14T22:26:21.834Z,13.67
2018-04-14T22:28:51.158Z,13.69
2018-04-14T22:31:21.528Z,13.72
2018-04-14T22:33:50.262Z,13.73
2018-04-14T22:36:18.588Z,13.68
2018-04-14T22:38:47.331Z,13.67
2018-04-14T22:41:16.863Z,13.70
2018-04-14T22:43:45.453Z,13.68
2018-04-14T22:46:14.718Z,13.70
2018-04-14T22:48:43.131Z,13.62
2018-04-14T22:51:12.583Z,13.53
2018-04-14T22:53:40.979Z,13.57
2018-04-14T22:56:10.043Z,13.53
2018-04-14T22:58:38.484Z,13.46
2018-04-14T23:01:07.470Z,13.44
2018-04-14T23:03:36.941Z,13.50
2018-04-14T23:06:09.433Z,13.48
2018-04-14T23:08:39.184Z,13.45
2018-04-14T23:11:07.536Z,13.35
2018-04-14T23:13:35.912Z,13.30
2018-04-14T23:16:05.303Z,13.33
2018-04-14T23:18:34.561Z,13.38
2018-04-14T23:21:02.937Z,13.36
2018-04-14T23:23:31.776Z,13.33
2018-04-14T23:26:01.697Z,13.49
2018-04-14T23:28:30.985Z,13.48
2018-04-14T23:30:59.425Z,13.43
2018-04-14T23:33:28.759Z,13.25
2018-04-14T23:35:57.686Z,13.26
2018-04-14T23:38:26.850Z,13.30
2018-04-14T23:40:56.721Z,13.25
2018-04-14T23:43:25.042Z,13.29
2018-04-14T23:45:53.453Z,13.30
2018-04-14T23:48:21.788Z,13.27
2018-04-14T23:50:50.377Z,13.26
2018-04-14T23:53:19.794Z,13.27
2018-04-14T23:55:49.973Z,13.23
2018-04-14T23:58:19.108Z,13.36
